Time;durP1;ratioP1;P1;durP2;ratioP2;P2;SDS_P1;SDS_P2;PMS_P1;PMS_P2;Temp;Humidity;BMP_temperature;BMP_pressure;BME280_temperature;BME280_humidity;BME280_pressure;Samples;Min_cycle;Max_cycle;Signal;HPM_P1;HPM_P2
2022/08/20 00:00:31;;;;;;;32.93;6.53;;;;;;;19.47;100.00;99995.41;1681278;85;20940;-64
2022/08/20 00:03:01;;;;;;;27.87;6.53;;;;;;;19.46;100.00;99993.29;1681469;85;20943;-57
2022/08/20 00:05:36;;;;;;;33.50;6.10;;;;;;;19.48;100.00;99996.50;1654582;86;20982;-57
2022/08/20 00:08:03;;;;;;;29.87;6.20;;;;;;;19.53;100.00;99998.39;1654602;86;21434;-57
2022/08/20 00:10:32;;;;;;;29.23;6.13;;;;;;;19.52;100.00;99996.28;1654642;86;21198;-63
2022/08/20 00:12:59;;;;;;;41.70;7.43;;;;;;;19.53;100.00;99998.39;1654569;86;21573;-57
2022/08/20 00:15:30;;;;;;;37.80;7.13;;;;;;;19.56;100.00;99997.91;1654828;86;21048;-57
2022/08/20 00:17:57;;;;;;;37.83;6.30;;;;;;;19.53;100.00;100002.36;1654519;86;21031;-57
2022/08/20 00:20:28;;;;;;;36.77;8.07;;;;;;;19.57;100.00;100004.25;1654649;86;21018;-57
2022/08/20 00:22:56;;;;;;;34.13;7.35;;;;;;;19.56;100.00;100004.52;1654617;86;21248;-57
2022/08/20 00:25:26;;;;;;;29.23;5.30;;;;;;;19.47;100.00;100007.30;1654857;86;21569;-58
2022/08/20 00:27:53;;;;;;;33.50;6.53;;;;;;;19.53;100.00;100014.25;1654662;86;20955;-57
2022/08/20 00:30:21;;;;;;;34.93;8.20;;;;;;;19.57;100.00;100014.03;1654868;86;21081;-57
2022/08/20 00:32:55;;;;;;;33.17;6.67;;;;;;;19.49;100.00;100009.98;1654876;86;21557;-58
2022/08/20 00:35:25;;;;;;;25.03;6.20;;;;;;;19.51;100.00;100009.72;1655051;86;21432;-57
2022/08/20 00:37:52;;;;;;;36.93;7.80;;;;;;;19.50;100.00;100011.58;1654664;86;21065;-57
2022/08/20 00:40:23;;;;;;;32.90;6.53;;;;;;;19.42;100.00;100012.02;1654771;86;21038;-57
2022/08/20 00:42:56;;;;;;;36.15;6.37;;;;;;;19.50;100.00;100009.45;1654688;86;21019;-59
2022/08/20 00:45:23;;;;;;;30.70;7.00;;;;;;;19.55;100.00;100010.33;1654561;86;21018;-65
2022/08/20 00:47:50;;;;;;;26.87;5.47;;;;;;;19.69;100.00;100008.90;1654978;86;21150;-57
2022/08/20 00:50:20;;;;;;;28.33;5.63;;;;;;;19.82;100.00;100013.02;1654888;86;21023;-58
2022/08/20 00:52:49;;;;;;;30.60;6.47;;;;;;;19.81;100.00;99996.88;1654650;86;21023;-65
2022/08/20 00:55:17;;;;;;;38.20;6.80;;;;;;;19.79;100.00;99998.95;1654221;86;21023;-59
2022/08/20 00:57:53;;;;;;;38.03;7.43;;;;;;;19.80;100.00;100004.52;1654400;86;21655;-57
2022/08/20 01:00:27;;;;;;;26.43;6.47;;;;;;;19.71;100.00;100004.70;1655339;86;21108;-57
2022/08/20 01:02:54;;;;;;;33.33;6.03;;;;;;;19.80;100.00;100003.72;1630043;86;21079;-58
2022/08/20 01:05:23;;;;;;;31.47;5.93;;;;;;;19.71;100.00;100001.27;1676913;85;21278;-63
2022/08/20 01:07:56;;;;;;;36.67;6.80;;;;;;;19.66;100.00;100009.92;1681392;85;21475;-58
2022/08/20 01:10:27;;;;;;;29.52;6.03;;;;;;;19.69;100.00;100005.45;1680877;84;20991;-58
2022/08/20 01:12:57;;;;;;;29.13;6.90;;;;;;;19.64;100.00;100015.47;1681403;85;21861;-57
2022/08/20 01:15:27;;;;;;;31.97;8.17;;;;;;;19.65;100.00;100026.31;1681329;85;21280;-57
2022/08/20 01:17:57;;;;;;;34.63;7.57;;;;;;;19.74;100.00;100025.37;1681510;85;21019;-57
2022/08/20 01:20:30;;;;;;;27.15;6.05;;;;;;;19.75;100.00;100024.84;1681637;85;21599;-64
2022/08/20 01:23:28;;;;;;;31.70;7.33;;;;;;;19.74;100.00;100017.96;1680506;85;21507;-57
2022/08/20 01:26:08;;;;;;;36.23;7.37;;;;;;;19.82;100.00;100020.95;1682321;85;21328;-57
2022/08/20 01:28:52;;;;;;;34.20;5.63;;;;;;;19.76;100.00;100023.78;1676038;84;21054;-58
2022/08/20 01:31:22;;;;;;;33.63;6.50;;;;;;;19.75;100.00;100023.52;1681893;85;20984;-57
2022/08/20 01:33:49;;;;;;;36.97;5.73;;;;;;;19.84;100.00;100029.41;1682001;85;21054;-64
2022/08/20 01:36:18;;;;;;;30.03;6.53;;;;;;;19.78;100.00;100033.08;1681696;85;21054;-57
2022/08/20 01:38:47;;;;;;;39.27;6.60;;;;;;;19.73;100.00;100032.20;1683936;85;21144;-57
2022/08/20 01:41:37;;;;;;;26.83;5.80;;;;;;;19.69;100.00;100037.19;1682401;85;21481;-57
2022/08/20 01:44:04;;;;;;;32.20;5.80;;;;;;;19.72;100.00;100030.62;1682185;85;21328;-59
2022/08/20 01:46:37;;;;;;;27.17;5.67;;;;;;;19.79;100.00;100037.84;1682256;85;20923;-57
2022/08/20 01:49:15;;;;;;;28.17;6.27;;;;;;;19.76;100.00;100027.22;1682315;85;20892;-58
2022/08/20 01:51:42;;;;;;;29.50;6.27;;;;;;;19.64;100.00;100028.69;1681444;85;21127;-60
2022/08/20 01:54:12;;;;;;;32.17;6.90;;;;;;;19.62;100.00;100026.83;1681552;85;21391;-59
2022/08/20 01:57:01;;;;;;;25.63;5.17;;;;;;;19.66;100.00;100032.39;1681726;85;20940;-57
2022/08/20 01:59:28;;;;;;;30.70;5.70;;;;;;;19.67;100.00;100037.98;1680944;85;21328;-57
2022/08/20 02:01:55;;;;;;;30.40;5.50;;;;;;;19.67;100.00;100034.81;1681508;85;21336;-57
2022/08/20 02:04:23;;;;;;;33.33;6.43;;;;;;;19.74;100.00;100036.47;1681444;85;21164;-58
2022/08/20 02:06:55;;;;;;;28.30;5.90;;;;;;;19.76;100.00;100031.72;1680900;85;20932;-59
2022/08/20 02:09:22;;;;;;;27.97;6.17;;;;;;;19.71;100.00;100021.89;1680961;85;21058;-58
2022/08/20 02:11:52;;;;;;;27.47;5.23;;;;;;;19.72;100.00;100021.36;1681642;85;20974;-57
2022/08/20 02:14:19;;;;;;;37.83;6.77;;;;;;;19.75;100.00;100020.34;1681783;85;21071;-57
2022/08/20 02:16:47;;;;;;;39.63;5.93;;;;;;;19.84;100.00;100029.94;1681740;85;21173;-66
2022/08/20 02:19:21;;;;;;;23.50;5.33;;;;;;;19.88;100.00;100035.00;1681156;85;21070;-57
2022/08/20 02:21:51;;;;;;;37.00;6.33;;;;;;;19.91;100.00;100039.80;1681726;85;20939;-57
2022/08/20 02:24:19;;;;;;;32.73;5.40;;;;;;;19.83;100.00;100043.70;1682006;85;20976;-57
2022/08/20 02:26:47;;;;;;;35.23;7.07;;;;;;;19.86;100.00;100043.73;1681649;85;20987;-59
2022/08/20 02:29:15;;;;;;;33.27;5.87;;;;;;;19.85;100.00;100047.41;1681631;85;21334;-57
2022/08/20 02:31:43;;;;;;;29.50;6.47;;;;;;;19.79;100.00;100047.09;1681612;85;21752;-57
2022/08/20 02:34:11;;;;;;;33.57;6.63;;;;;;;19.84;100.00;100051.90;1681718;85;21454;-57
2022/08/20 02:36:41;;;;;;;22.40;5.73;;;;;;;19.91;100.00;100055.67;1681440;85;20954;-66
2022/08/20 02:39:10;;;;;;;21.80;4.70;;;;;;;19.96;100.00;100048.31;1681055;85;20939;-57
2022/08/20 02:41:38;;;;;;;27.23;5.40;;;;;;;19.92;100.00;100050.13;1682448;85;21128;-57
2022/08/20 02:44:06;;;;;;;29.87;6.77;;;;;;;19.93;100.00;100049.63;1682248;85;21121;-58
2022/08/20 02:46:33;;;;;;;27.83;7.13;;;;;;;19.86;100.00;100049.81;1682074;85;21022;-66
2022/08/20 02:49:00;;;;;;;32.37;6.43;;;;;;;19.75;100.00;100046.79;1680749;85;21010;-58
2022/08/20 02:51:28;;;;;;;34.47;6.47;;;;;;;19.71;100.00;100048.86;1681804;85;21561;-57
2022/08/20 02:53:55;;;;;;;29.37;5.80;;;;;;;19.81;100.00;100044.98;1682013;85;21165;-57
2022/08/20 02:56:24;;;;;;;32.57;7.53;;;;;;;19.82;100.00;100053.22;1681898;85;20936;-57
2022/08/20 02:58:51;;;;;;;33.70;7.00;;;;;;;19.86;100.00;100053.78;1681207;85;20948;-64
2022/08/20 03:01:19;;;;;;;31.07;6.17;;;;;;;20.01;100.00;100047.05;1681766;85;21839;-57
2022/08/20 03:03:47;;;;;;;31.63;5.83;;;;;;;20.16;100.00;100045.34;1681895;85;21102;-57
2022/08/20 03:06:16;;;;;;;28.33;5.60;;;;;;;20.26;100.00;100050.44;1686667;85;21176;-57
2022/08/20 03:08:44;;;;;;;29.97;6.73;;;;;;;20.36;100.00;100055.30;1686587;85;21559;-59
2022/08/20 03:11:11;;;;;;;28.33;5.60;;;;;;;20.45;100.00;100062.77;1687071;85;21523;-58
2022/08/20 03:13:39;;;;;;;31.83;6.03;;;;;;;20.50;100.00;100054.92;1687314;85;21015;-58
2022/08/20 03:16:07;;;;;;;27.03;5.63;;;;;;;20.53;100.00;100056.53;1686895;85;21062;-58
2022/08/20 03:18:37;;;;;;;23.93;6.33;;;;;;;20.62;100.00;100060.30;1686887;85;21153;-67
2022/08/20 03:21:05;;;;;;;22.77;5.53;;;;;;;20.61;100.00;100056.06;1687003;85;20947;-58
2022/08/20 03:23:33;;;;;;;24.37;6.13;;;;;;;20.71;100.00;100058.50;1687371;85;21070;-58
2022/08/20 03:26:00;;;;;;;27.77;6.17;;;;;;;20.74;100.00;100065.94;1687161;85;21029;-58
2022/08/20 03:28:27;;;;;;;24.17;6.37;;;;;;;20.77;100.00;100068.09;1687317;85;21497;-62
2022/08/20 03:30:58;;;;;;;28.13;7.60;;;;;;;20.73;100.00;100066.47;1686028;85;22515;-58
2022/08/20 03:33:26;;;;;;;31.07;6.53;;;;;;;20.82;100.00;100065.46;1687222;85;21917;-58
2022/08/20 03:35:53;;;;;;;21.07;6.10;;;;;;;20.73;100.00;100067.00;1687265;85;21011;-57
2022/08/20 03:38:22;;;;;;;27.47;5.70;;;;;;;20.73;100.00;100070.97;1686914;85;21015;-58
2022/08/20 03:40:50;;;;;;;30.83;6.37;;;;;;;20.64;100.00;100079.36;1686388;85;20974;-67
2022/08/20 03:43:17;;;;;;;29.07;5.97;;;;;;;20.65;100.00;100078.34;1686798;85;21793;-58
2022/08/20 03:45:44;;;;;;;26.80;7.17;;;;;;;20.67;100.00;100071.45;1686966;85;20896;-58
2022/08/20 03:48:15;;;;;;;24.80;6.27;;;;;;;20.72;100.00;100077.30;1687342;85;20935;-58
2022/08/20 03:50:42;;;;;;;29.10;6.63;;;;;;;20.73;100.00;100080.24;1687253;85;20956;-69
2022/08/20 03:53:10;;;;;;;29.80;6.80;;;;;;;20.79;100.00;100072.05;1686205;85;21015;-59
2022/08/20 03:55:39;;;;;;;30.63;6.57;;;;;;;20.72;100.00;100072.00;1686789;85;40011;-59
2022/08/20 03:58:08;;;;;;;27.63;6.30;;;;;;;20.66;100.00;100072.51;1686618;85;21070;-58
2022/08/20 04:00:46;;;;;;;30.90;6.70;;;;;;;20.65;100.00;100077.55;1684048;85;20983;-59
2022/08/20 04:03:13;;;;;;;28.63;6.70;;;;;;;20.52;100.00;100069.48;1686521;85;21026;-58
2022/08/20 04:05:41;;;;;;;27.73;6.07;;;;;;;20.53;100.00;100083.02;1686619;84;21079;-58
2022/08/20 04:08:11;;;;;;;40.90;7.67;;;;;;;20.44;100.00;100087.13;1686904;85;21430;-58
2022/08/20 04:10:39;;;;;;;23.22;6.28;;;;;;;20.30;100.00;100087.27;1686631;85;21663;-68
2022/08/20 04:13:07;;;;;;;25.50;6.67;;;;;;;20.20;100.00;100094.60;1686594;85;21858;-59
2022/08/20 04:15:35;;;;;;;26.47;6.33;;;;;;;20.16;100.00;100098.27;1686720;85;21006;-60
2022/08/20 04:18:06;;;;;;;33.70;6.07;;;;;;;20.15;100.00;100091.89;1687230;85;20939;-58
2022/08/20 04:20:34;;;;;;;34.75;8.23;;;;;;;20.14;100.00;100091.09;1686832;84;21308;-66
2022/08/20 04:23:01;;;;;;;35.17;7.13;;;;;;;20.17;100.00;100083.98;1686445;85;21099;-58
2022/08/20 04:25:30;;;;;;;27.00;6.30;;;;;;;20.35;100.00;100078.86;1686862;85;21320;-58
2022/08/20 04:27:59;;;;;;;33.10;7.37;;;;;;;20.49;100.00;100075.78;1687347;85;20955;-58
2022/08/20 04:30:26;;;;;;;36.60;8.43;;;;;;;20.69;100.00;100083.12;1686931;85;20978;-64
2022/08/20 04:32:54;;;;;;;45.50;8.30;;;;;;;20.81;100.00;100082.42;1685909;85;21235;-59
2022/08/20 04:35:23;;;;;;;28.93;6.73;;;;;;;20.63;100.00;100080.42;1687227;85;21045;-58
2022/08/20 04:37:58;;;;;;;29.87;7.50;;;;;;;20.77;100.00;100077.36;1687212;85;21074;-62
2022/08/20 04:43:12;;;;;;;22.63;6.57;;;;;;;20.99;100.00;100085.98;1687348;85;21781;-58
2022/08/20 04:45:39;;;;;;;34.13;6.77;;;;;;;21.12;100.00;100077.56;1687233;85;21520;-58
2022/08/20 04:48:07;;;;;;;23.97;7.03;;;;;;;21.17;100.00;100090.04;1686832;85;21007;-59
2022/08/20 04:50:36;;;;;;;38.27;7.70;;;;;;;21.24;100.00;100080.54;1686072;85;21003;-60
2022/08/20 04:53:05;;;;;;;26.30;7.03;;;;;;;21.33;100.00;100084.34;1686908;85;21098;-58
2022/08/20 04:55:33;;;;;;;31.30;8.37;;;;;;;21.39;100.00;100079.31;1687110;85;20968;-59
2022/08/20 04:58:06;;;;;;;38.03;7.80;;;;;;;21.41;100.00;100077.22;1687229;85;21182;-58
2022/08/20 05:00:34;;;;;;;33.47;8.10;;;;;;;21.62;100.00;100070.91;1686710;85;20908;-59
2022/08/20 05:03:02;;;;;;;34.73;7.63;;;;;;;22.05;100.00;100067.58;1687197;85;21142;-59
2022/08/20 05:05:29;;;;;;;32.50;8.60;;;;;;;22.56;100.00;100058.85;1687487;85;20939;-58
2022/08/20 05:07:58;;;;;;;28.10;7.07;;;;;;;23.36;100.00;100051.51;1687132;85;21697;-58
2022/08/20 05:10:25;;;;;;;30.50;8.40;;;;;;;24.40;100.00;100056.78;1686023;85;21119;-67
2022/08/20 05:12:52;;;;;;;39.37;9.10;;;;;;;25.32;100.00;100044.63;1686772;85;21567;-58
2022/08/20 05:15:19;;;;;;;32.97;7.30;;;;;;;25.54;100.00;100040.63;1686760;85;20951;-58
2022/08/20 05:17:50;;;;;;;33.83;7.90;;;;;;;25.58;100.00;100040.30;1686709;85;21055;-58
2022/08/20 05:20:16;;;;;;;28.23;7.00;;;;;;;25.48;100.00;100047.35;1685960;85;21532;-58
2022/08/20 05:22:44;;;;;;;29.00;7.57;;;;;;;25.17;100.00;100044.82;1685838;85;21917;-65
2022/08/20 05:25:11;;;;;;;30.10;7.17;;;;;;;24.94;100.00;100047.72;1686607;85;21060;-58
2022/08/20 05:27:41;;;;;;;27.73;8.40;;;;;;;24.60;100.00;100057.13;1686730;85;21080;-59
2022/08/20 05:30:10;;;;;;;34.93;7.20;;;;;;;24.39;100.00;100061.83;1685936;85;20966;-60
2022/08/20 05:32:37;;;;;;;32.47;8.57;;;;;;;24.11;100.00;100055.38;1686455;85;21476;-58
2022/08/20 05:35:08;;;;;;;23.80;7.87;;;;;;;23.86;100.00;100056.33;1686066;85;22490;-58
2022/08/20 05:37:38;;;;;;;30.10;8.35;;;;;;;23.68;100.00;100057.78;1686060;85;20975;-57
2022/08/20 05:40:10;;;;;;;27.40;8.33;;;;;;;23.59;100.00;100062.04;1685841;84;21004;-60
2022/08/20 05:42:37;;;;;;;26.40;8.03;;;;;;;23.40;100.00;100067.97;1686144;85;20991;-59
2022/08/20 05:45:06;;;;;;;33.00;8.60;;;;;;;23.41;100.00;100061.61;1686627;85;21789;-58
2022/08/20 05:47:33;;;;;;;39.70;8.60;;;;;;;23.52;100.00;100063.66;1686885;85;21975;-58
2022/08/20 05:50:04;;;;;;;26.20;7.50;;;;;;;23.66;100.00;100060.70;1686064;85;20942;-58
2022/08/20 05:52:31;;;;;;;32.90;8.33;;;;;;;24.09;100.00;100058.83;1686227;85;21145;-58
2022/08/20 05:54:59;;;;;;;30.70;7.37;;;;;;;24.40;100.00;100053.58;1686218;85;21045;-60
2022/08/20 05:57:27;;;;;;;32.83;8.27;;;;;;;24.72;100.00;100057.54;1686165;85;21054;-59
2022/08/20 05:59:54;;;;;;;27.63;8.73;;;;;;;24.92;100.00;100058.65;1686285;85;21124;-66
2022/08/20 06:05:08;;;;;;;27.67;8.43;;;;;;;24.79;100.00;100063.34;1686311;85;21129;-58
2022/08/20 06:07:36;;;;;;;23.77;8.23;;;;;;;24.58;100.00;100060.59;1681400;85;21009;-69
2022/08/20 06:10:05;;;;;;;26.50;7.37;;;;;;;24.51;100.00;100064.95;1681076;85;21527;-58
2022/08/20 06:12:33;;;;;;;34.43;9.63;;;;;;;24.54;100.00;100072.35;1682156;85;21287;-57
2022/08/20 06:15:01;;;;;;;25.67;7.23;;;;;;;24.41;100.00;100085.00;1682237;85;20959;-57
2022/08/20 06:17:29;;;;;;;31.03;7.63;;;;;;;24.40;100.00;100091.41;1681866;85;20936;-67
2022/08/20 06:19:57;;;;;;;23.93;6.97;;;;;;;24.44;100.00;100096.44;1680778;85;21686;-61
2022/08/20 06:22:25;;;;;;;24.93;6.80;;;;;;;24.40;100.00;100102.86;1681428;85;22032;-58
2022/08/20 06:24:53;;;;;;;34.30;9.43;;;;;;;24.39;100.00;100110.58;1681264;85;21158;-59
2022/08/20 06:27:22;;;;;;;24.37;6.63;;;;;;;24.47;100.00;100115.33;1680802;85;21000;-68
2022/08/20 06:29:49;;;;;;;26.73;6.03;;;;;;;24.48;100.00;100120.12;1681568;85;21006;-57
2022/08/20 06:32:18;;;;;;;22.03;5.50;;;;;;;24.65;100.00;100111.17;1681156;85;21007;-58
2022/08/20 06:34:45;;;;;;;21.90;5.53;;;;;;;24.97;100.00;100101.28;1681386;85;21050;-58
2022/08/20 06:37:16;;;;;;;19.87;5.60;;;;;;;25.59;100.00;100108.07;1681043;85;21267;-58
2022/08/20 06:39:44;;;;;;;21.55;6.22;;;;;;;26.21;100.00;100100.02;1680977;84;28149;-57
2022/08/20 06:42:12;;;;;;;22.48;5.65;;;;;;;26.85;100.00;100093.09;1680893;85;20988;-66
2022/08/20 06:44:39;;;;;;;38.17;7.77;;;;;;;27.71;100.00;100092.50;1681181;85;21002;-59
2022/08/20 06:47:06;;;;;;;24.82;6.78;;;;;;;28.58;100.00;100106.61;1681353;85;21043;-58
2022/08/20 06:49:35;;;;;;;27.02;7.70;;;;;;;29.23;100.00;100103.84;1681084;85;21174;-57
2022/08/20 06:52:04;;;;;;;29.72;6.40;;;;;;;29.71;85.82;100102.47;1681231;85;21008;-62
2022/08/20 06:54:33;;;;;;;33.45;6.62;;;;;;;29.79;76.19;100097.66;1681742;85;21131;-58
2022/08/20 06:57:01;;;;;;;24.63;6.08;;;;;;;29.52;70.70;100096.57;1681668;85;21016;-58
2022/08/20 06:59:29;;;;;;;34.88;6.17;;;;;;;29.14;68.67;100121.82;1681037;85;20952;-58
2022/08/20 07:01:57;;;;;;;32.70;7.17;;;;;;;28.88;71.87;100116.31;1681117;85;21786;-58
2022/08/20 07:04:26;;;;;;;36.03;6.78;;;;;;;28.78;71.71;100110.09;1681538;85;21122;-57
2022/08/20 07:06:53;;;;;;;27.62;6.42;;;;;;;28.71;71.77;100101.69;1684364;85;20983;-57
2022/08/20 07:09:24;;;;;;;32.53;6.80;;;;;;;29.12;69.41;100111.93;1685539;85;20943;-57
2022/08/20 07:11:52;;;;;;;25.72;6.15;;;;;;;29.29;65.05;100108.76;1686199;85;21092;-59
2022/08/20 07:14:21;;;;;;;31.27;7.15;;;;;;;29.44;62.42;100108.09;1686299;85;21220;-57
2022/08/20 07:16:48;;;;;;;23.45;6.92;;;;;;;29.54;60.69;100112.59;1686380;85;21071;-57
2022/08/20 07:19:16;;;;;;;25.68;5.92;;;;;;;29.64;55.71;100124.19;1685805;85;21434;-64
2022/08/20 07:21:43;;;;;;;25.77;5.62;;;;;;;29.65;56.42;100110.43;1686219;85;21440;-65
2022/08/20 07:24:11;;;;;;;22.27;5.83;;;;;;;29.74;53.29;100117.97;1686127;85;21575;-57
2022/08/20 07:26:39;;;;;;;24.92;5.08;;;;;;;29.61;51.38;100123.47;1686254;85;21159;-57
2022/08/20 07:29:08;;;;;;;26.17;7.55;;;;;;;29.37;52.89;100134.05;1685839;85;21095;-67
2022/08/20 07:34:22;;;;;;;23.22;5.45;;;;;;;29.44;51.02;100133.05;1686404;85;21477;-57
2022/08/20 07:36:50;;;;;;;19.98;6.60;;;;;;;29.31;51.28;100127.23;1686212;85;21011;-58
2022/08/20 07:39:17;;;;;;;32.28;7.53;;;;;;;29.11;51.40;100116.52;1686271;85;21470;-63
2022/08/20 07:42:01;;;;;;;24.90;5.70;;;;;;;29.00;52.02;100117.33;1685974;85;20967;-58
2022/08/20 07:44:13;;;;;;;21.95;4.97;;;;;;;29.04;52.23;100126.90;1683048;85;21034;-61
2022/08/20 07:46:41;;;;;;;15.87;5.40;;;;;;;29.00;52.33;100111.18;1686121;85;21592;-59
2022/08/20 07:49:08;;;;;;;22.00;6.40;;;;;;;28.90;53.36;100111.41;1685893;85;21011;-57
2022/08/20 07:51:36;;;;;;;28.87;5.05;;;;;;;28.86;54.69;100104.53;1685734;85;21161;-59
2022/08/20 07:54:04;;;;;;;19.70;4.58;;;;;;;29.00;55.79;100097.20;1686316;85;21106;-57
2022/08/20 07:56:31;;;;;;;29.72;5.15;;;;;;;29.22;53.17;100088.28;1686678;85;21098;-56
2022/08/20 07:59:00;;;;;;;26.62;5.90;;;;;;;29.37;54.67;100091.09;1685590;85;21532;-59
2022/08/20 08:01:29;;;;;;;18.07;4.95;;;;;;;29.64;53.34;100081.20;1686795;85;21955;-57
2022/08/20 08:03:57;;;;;;;28.55;5.67;;;;;;;29.88;53.22;100083.42;1686131;85;21148;-57
2022/08/20 08:06:26;;;;;;;22.98;6.22;;;;;;;30.04;54.91;100082.64;1686435;84;21031;-57
2022/08/20 08:08:53;;;;;;;15.35;4.53;;;;;;;30.26;53.43;100080.33;1685835;85;21023;-58
2022/08/20 08:11:20;;;;;;;24.40;4.67;;;;;;;30.56;54.20;100085.80;1685870;85;21129;-57
2022/08/20 08:13:48;;;;;;;24.50;5.95;;;;;;;30.74;53.24;100083.33;1685931;85;20992;-66
2022/08/20 08:16:15;;;;;;;23.05;4.80;;;;;;;30.94;52.33;100082.38;1685975;85;21718;-58
2022/08/20 08:18:47;;;;;;;19.27;5.55;;;;;;;31.20;52.75;100091.11;1686155;85;21002;-57
2022/08/20 08:21:15;;;;;;;20.50;5.65;;;;;;;31.35;52.23;100100.56;1686463;85;20996;-57
2022/08/20 08:23:43;;;;;;;21.30;5.50;;;;;;;31.24;54.18;100101.45;1686481;85;21003;-56
2022/08/20 08:26:13;;;;;;;15.15;4.45;;;;;;;31.19;54.85;100103.56;1685633;85;21011;-57
2022/08/20 08:28:43;;;;;;;16.17;5.20;;;;;;;31.29;56.40;100119.33;1686295;85;21922;-60
2022/08/20 08:31:10;;;;;;;17.80;4.10;;;;;;;31.28;57.44;100120.45;1685742;85;21109;-57
2022/08/20 08:33:39;;;;;;;15.13;4.08;;;;;;;31.31;58.19;100125.22;1686010;85;21084;-57
2022/08/20 08:36:11;;;;;;;17.75;4.70;;;;;;;31.41;60.38;100126.20;1685893;85;20983;-57
2022/08/20 08:38:40;;;;;;;15.18;3.90;;;;;;;31.33;59.37;100127.58;1686557;85;21106;-67
2022/08/20 08:41:38;;;;;;;22.98;5.35;;;;;;;31.01;62.22;100137.84;1686330;85;21521;-57
2022/08/20 08:44:12;;;;;;;23.95;4.80;;;;;;;30.80;65.58;100146.38;1685704;84;21834;-57
2022/08/20 08:46:44;;;;;;;17.37;3.85;;;;;;;30.54;69.71;100138.59;1686428;85;22065;-56
2022/08/20 08:49:14;;;;;;;12.35;4.28;;;;;;;30.20;73.44;100131.36;1686583;85;21030;-56
2022/08/20 08:51:46;;;;;;;18.35;4.20;;;;;;;29.84;77.25;100133.53;1686153;85;21022;-57
2022/08/20 08:54:19;;;;;;;13.68;4.75;;;;;;;29.53;83.94;100131.72;1685713;85;21244;-56
2022/08/20 08:56:46;;;;;;;11.12;3.72;;;;;;;29.39;91.01;100145.26;1686644;85;21034;-56
2022/08/20 08:59:14;;;;;;;16.27;3.77;;;;;;;29.33;87.06;100145.97;1685965;85;20987;-58
2022/08/20 09:01:45;;;;;;;15.40;4.20;;;;;;;29.15;81.17;100159.08;1686647;85;21787;-66
2022/08/20 09:04:15;;;;;;;;;;;;;;;28.76;80.75;100159.81;1688854;85;21560;-56
2022/08/20 09:06:43;;;;;;;15.08;3.77;;;;;;;28.30;80.22;100169.72;1684842;84;21607;-56
2022/08/20 09:09:17;;;;;;;16.52;4.35;;;;;;;27.86;84.46;100174.44;1682489;85;20967;-56
2022/08/20 09:11:49;;;;;;;14.13;4.40;;;;;;;27.39;85.08;100179.11;1680905;85;21055;-58
2022/08/20 09:14:17;;;;;;;16.45;4.58;;;;;;;26.89;87.65;100182.36;1681442;85;21074;-56
2022/08/20 09:16:45;;;;;;;21.05;5.67;;;;;;;26.65;87.48;100182.48;1681579;85;21007;-66
2022/08/20 09:19:12;;;;;;;14.98;4.40;;;;;;;26.36;86.67;100205.34;1681323;85;20951;-56
2022/08/20 09:21:40;;;;;;;13.10;4.22;;;;;;;26.13;89.03;100200.32;1681782;85;21804;-65
2022/08/20 09:24:07;;;;;;;21.13;5.00;;;;;;;26.05;92.61;100211.66;1681057;85;21015;-57
2022/08/20 09:26:36;;;;;;;18.02;4.45;;;;;;;25.92;90.75;100203.81;1681867;85;21074;-56
2022/08/20 09:29:03;;;;;;;19.37;5.00;;;;;;;25.72;95.77;100208.02;1680765;85;20853;-57
2022/08/20 09:31:31;;;;;;;19.10;4.33;;;;;;;25.62;92.69;100206.81;1681271;85;21294;-57
2022/08/20 09:33:58;;;;;;;16.53;4.97;;;;;;;25.54;95.11;100203.44;1680588;85;20998;-57
2022/08/20 09:36:27;;;;;;;23.17;4.70;;;;;;;25.29;96.11;100202.61;1681497;84;21081;-59
2022/08/20 09:38:55;;;;;;;17.43;4.53;;;;;;;25.18;97.16;100198.45;1681270;85;21102;-65
2022/08/20 09:41:22;;;;;;;21.87;4.83;;;;;;;25.11;99.40;100197.98;1680957;85;20998;-57
2022/08/20 09:43:49;;;;;;;18.33;4.43;;;;;;;25.03;100.00;100195.35;1681216;85;21170;-67
2022/08/20 09:46:16;;;;;;;22.13;5.93;;;;;;;24.95;98.28;100195.42;1681308;85;20951;-57
2022/08/20 09:48:45;;;;;;;19.60;4.80;;;;;;;24.87;99.75;100196.03;1681574;85;21051;-57
2022/08/20 09:51:13;;;;;;;24.10;5.07;;;;;;;24.80;97.25;100208.09;1680886;85;21462;-57
2022/08/20 09:53:40;;;;;;;24.57;4.90;;;;;;;24.66;100.00;100218.58;1681654;85;21866;-57
2022/08/20 09:56:09;;;;;;;22.13;4.50;;;;;;;24.60;100.00;100232.48;1680322;85;22183;-57
2022/08/20 09:58:50;;;;;;;19.30;4.60;;;;;;;24.65;96.70;100236.44;1687066;84;21835;-57
2022/08/20 10:01:18;;;;;;;21.00;4.25;;;;;;;24.43;96.77;100246.70;1686560;84;21105;-57
2022/08/20 10:03:47;;;;;;;20.70;4.30;;;;;;;24.24;100.00;100238.51;1681217;85;21094;-66
2022/08/20 10:06:18;;;;;;;26.97;6.07;;;;;;;24.30;100.00;100233.43;1681301;85;22411;-57
2022/08/20 10:08:46;;;;;;;15.83;4.30;;;;;;;24.29;100.00;100243.83;1681248;85;21136;-57
2022/08/20 10:11:13;;;;;;;23.80;5.10;;;;;;;24.36;100.00;100239.52;1681377;85;21546;-56
2022/08/20 10:13:41;;;;;;;15.40;3.80;;;;;;;24.48;100.00;100220.84;1681950;84;20897;-67
2022/08/20 10:16:09;;;;;;;24.90;4.93;;;;;;;24.65;100.00;100208.45;1680844;85;21015;-57
2022/08/20 10:18:37;;;;;;;13.40;4.57;;;;;;;24.87;96.80;100206.69;1680912;85;21069;-61
2022/08/20 10:21:10;;;;;;;18.40;4.80;;;;;;;25.02;97.52;100223.65;1681747;85;21163;-56
2022/08/20 10:23:38;;;;;;;14.57;3.57;;;;;;;25.15;86.94;100221.69;1680968;85;20967;-65
2022/08/20 10:26:07;;;;;;;16.33;3.40;;;;;;;25.21;85.72;100220.03;1681421;85;20948;-57
2022/08/20 10:28:35;;;;;;;17.80;3.70;;;;;;;25.23;85.45;100219.22;1681193;85;20956;-57
2022/08/20 10:31:07;;;;;;;14.17;3.97;;;;;;;25.22;84.68;100219.48;1681305;84;21125;-57
2022/08/20 10:33:36;;;;;;;15.67;4.10;;;;;;;25.12;86.87;100218.27;1685909;84;21252;-65
2022/08/20 10:36:11;;;;;;;19.20;4.40;;;;;;;25.23;83.10;100223.77;1681283;85;21411;-57
2022/08/20 10:38:38;;;;;;;16.53;3.83;;;;;;;25.59;83.42;100226.86;1680803;84;21077;-57
2022/08/20 10:41:05;;;;;;;22.17;4.10;;;;;;;26.05;80.70;100230.35;1681802;85;21449;-57
2022/08/20 10:43:33;;;;;;;14.00;3.60;;;;;;;26.43;76.67;100233.84;1681392;84;21398;-59
2022/08/20 10:46:00;;;;;;;20.13;4.23;;;;;;;26.73;76.32;100253.23;1682017;85;21168;-57
2022/08/20 10:48:28;;;;;;;21.80;4.70;;;;;;;27.10;72.94;100255.05;1680994;85;21042;-65
2022/08/20 10:50:56;;;;;;;14.75;4.03;;;;;;;27.49;67.63;100243.70;1681402;85;21068;-56
2022/08/20 10:53:23;;;;;;;15.83;3.73;;;;;;;27.73;65.09;100255.04;1681184;85;21098;-64
2022/08/20 10:55:53;;;;;;;16.97;4.83;;;;;;;27.90;63.06;100245.08;1681221;85;22271;-57
2022/08/20 10:58:20;;;;;;;19.07;3.77;;;;;;;27.94;61.09;100253.31;1681521;85;21161;-66
2022/08/20 11:00:47;;;;;;;19.75;5.75;;;;;;;27.75;61.32;100248.85;1681010;85;21090;-58
2022/08/20 11:03:14;;;;;;;17.73;4.20;;;;;;;27.48;61.65;100238.11;1681673;85;21320;-56
2022/08/20 11:05:44;;;;;;;19.10;4.35;;;;;;;27.14;64.87;100251.28;1681180;85;21019;-56
2022/08/20 11:08:11;;;;;;;21.45;5.08;;;;;;;26.85;67.39;100237.52;1684089;85;21392;-56
2022/08/20 11:10:39;;;;;;;22.70;4.50;;;;;;;26.52;69.11;100235.38;1685573;85;21166;-57
2022/08/20 11:13:07;;;;;;;16.13;4.70;;;;;;;26.13;70.36;100259.09;1686492;85;21523;-56
2022/08/20 11:15:36;;;;;;;14.53;4.23;;;;;;;25.63;73.29;100227.88;1685816;85;20959;-56
2022/08/20 11:18:05;;;;;;;20.77;4.12;;;;;;;25.18;79.96;100219.80;1686547;85;20959;-56
2022/08/20 11:20:33;;;;;;;17.17;4.07;;;;;;;24.91;83.69;100225.59;1685930;85;20963;-57
2022/08/20 11:23:02;;;;;;;15.20;4.17;;;;;;;24.65;87.77;100220.98;1686539;85;21475;-58
2022/08/20 11:25:30;;;;;;;13.00;4.57;;;;;;;24.40;94.61;100217.43;1685676;85;21027;-62
2022/08/20 11:27:57;;;;;;;21.77;4.67;;;;;;;24.23;99.85;100219.61;1686307;85;21068;-56